createdAt,value
2019-02-24T00:01:19.316Z,15.33
2019-02-24T00:03:47.461Z,13.27
2019-02-24T00:06:15.256Z,13.67
2019-02-24T00:08:43.202Z,15.13
2019-02-24T00:11:12.300Z,14.80
2019-02-24T00:13:40.085Z,13.57
2019-02-24T00:16:08.380Z,12.80
2019-02-24T00:18:36.935Z,14.63
2019-02-24T00:21:04.706Z,13.83
2019-02-24T00:23:32.680Z,13.80
2019-02-24T00:26:00.443Z,14.60
2019-02-24T00:28:28.219Z,13.93
2019-02-24T00:30:56.293Z,14.70
2019-02-24T00:33:24.071Z,15.47
2019-02-24T00:35:51.962Z,15.43
2019-02-24T00:38:20.858Z,15.10
2019-02-24T00:40:48.749Z,14.90
2019-02-24T00:43:20.564Z,13.87
2019-02-24T00:45:48.466Z,15.40
2019-02-24T00:48:16.235Z,14.00
2019-02-24T00:50:44.363Z,14.17
2019-02-24T00:53:12.303Z,15.33
2019-02-24T00:55:40.098Z,14.87
2019-02-24T00:58:15.939Z,14.60
2019-02-24T01:00:39.563Z,15.83
2019-02-24T01:03:07.319Z,13.87
2019-02-24T01:05:35.155Z,13.70
2019-02-24T01:08:03.057Z,15.73
2019-02-24T01:10:30.935Z,14.07
2019-02-24T01:12:58.696Z,16.27
2019-02-24T01:15:28.516Z,13.80
2019-02-24T01:17:58.742Z,15.90
2019-02-24T01:20:26.712Z,14.47
2019-02-24T01:22:54.509Z,14.53
2019-02-24T01:25:22.277Z,16.30
2019-02-24T01:27:50.224Z,14.23
2019-02-24T01:30:18.194Z,15.40
2019-02-24T01:32:45.974Z,13.93
2019-02-24T01:35:15.786Z,15.10
2019-02-24T01:37:43.804Z,13.33
2019-02-24T01:40:12.782Z,14.57
2019-02-24T01:42:40.705Z,15.27
2019-02-24T01:45:11.712Z,14.00
2019-02-24T01:47:39.519Z,15.20
2019-02-24T01:50:08.027Z,14.50
2019-02-24T01:52:35.840Z,13.90
2019-02-24T01:55:04.174Z,15.53
2019-02-24T01:57:31.956Z,15.63
2019-02-24T01:59:59.923Z,15.10
2019-02-24T02:02:27.877Z,14.80
2019-02-24T02:04:55.806Z,15.00
2019-02-24T02:07:23.732Z,14.83
2019-02-24T02:09:51.508Z,14.17
2019-02-24T02:12:20.399Z,15.90
2019-02-24T02:14:48.377Z,14.20
2019-02-24T02:17:16.280Z,14.73
2019-02-24T02:19:44.051Z,15.40
2019-02-24T02:22:14.047Z,14.47
2019-02-24T02:24:42.006Z,14.87
2019-02-24T02:27:09.802Z,14.57
2019-02-24T02:29:37.574Z,14.10
2019-02-24T02:32:05.517Z,14.97
2019-02-24T02:34:33.288Z,16.00
2019-02-24T02:37:01.088Z,16.23
2019-02-24T02:39:30.772Z,15.00
2019-02-24T02:41:58.745Z,14.03
2019-02-24T02:44:26.721Z,14.93
2019-02-24T02:46:54.695Z,14.90
2019-02-24T02:49:22.547Z,15.30
2019-02-24T02:51:52.129Z,14.73
2019-02-24T02:54:20.053Z,14.60
2019-02-24T02:56:47.820Z,14.90
2019-02-24T02:59:15.984Z,15.50
2019-02-24T03:01:43.939Z,14.17
2019-02-24T03:04:12.015Z,16.70
2019-02-24T03:06:54.327Z,14.83
2019-02-24T03:09:22.322Z,13.50
2019-02-24T03:11:50.247Z,15.40
2019-02-24T03:14:18.248Z,16.00
2019-02-24T03:16:46.578Z,14.87
2019-02-24T03:19:14.455Z,15.67
2019-02-24T03:21:42.603Z,14.40
2019-02-24T03:24:10.471Z,14.80
2019-02-24T03:26:38.409Z,15.80
2019-02-24T03:29:06.740Z,15.30
2019-02-24T03:31:35.673Z,14.70
2019-02-24T03:34:03.481Z,14.83
2019-02-24T03:36:31.475Z,15.23
2019-02-24T03:38:59.468Z,16.00
2019-02-24T03:41:28.277Z,15.83
2019-02-24T03:43:56.412Z,16.50
2019-02-24T03:46:24.379Z,14.70
2019-02-24T03:48:52.357Z,15.13
2019-02-24T03:51:20.428Z,16.37
2019-02-24T03:53:48.512Z,15.30
2019-02-24T03:56:16.345Z,15.17
2019-02-24T03:58:44.351Z,15.13
2019-02-24T04:01:12.860Z,16.53
2019-02-24T04:03:41.723Z,15.37
2019-02-24T04:06:09.702Z,14.83
2019-02-24T04:08:37.500Z,16.90
2019-02-24T04:11:05.303Z,15.30
2019-02-24T04:13:33.214Z,14.43
2019-02-24T04:16:01.139Z,14.97
2019-02-24T04:18:29.172Z,15.47
2019-02-24T04:20:57.052Z,14.30
2019-02-24T04:23:25.007Z,15.53
2019-02-24T04:25:52.791Z,14.43
2019-02-24T04:28:22.358Z,14.10
2019-02-24T04:30:50.256Z,17.53
2019-02-24T04:33:18.030Z,16.30
2019-02-24T04:35:46.098Z,16.47
2019-02-24T04:38:15.935Z,15.47
2019-02-24T04:40:43.611Z,16.00
2019-02-24T04:43:11.561Z,14.90
2019-02-24T04:45:41.119Z,17.13
2019-02-24T04:48:09.171Z,16.77
2019-02-24T04:50:37.111Z,16.67
2019-02-24T04:53:04.905Z,15.93
2019-02-24T04:55:32.705Z,16.43
2019-02-24T04:58:00.724Z,15.70
2019-02-24T05:00:28.627Z,15.10
2019-02-24T05:02:56.545Z,16.70
2019-02-24T05:05:24.429Z,15.90
2019-02-24T05:07:52.197Z,15.57
2019-02-24T05:10:19.988Z,15.70
2019-02-24T05:12:47.963Z,17.80
2019-02-24T05:15:16.136Z,17.27
2019-02-24T05:17:44.153Z,15.20
2019-02-24T05:20:11.915Z,16.73
2019-02-24T05:22:39.965Z,15.23
2019-02-24T05:25:07.783Z,13.90
2019-02-24T05:27:35.692Z,15.00
2019-02-24T05:30:03.987Z,17.47
2019-02-24T05:32:31.857Z,15.00
2019-02-24T05:34:59.822Z,14.80
2019-02-24T05:37:27.597Z,15.40
2019-02-24T05:39:55.386Z,15.60
2019-02-24T05:42:23.335Z,17.13
2019-02-24T05:44:51.104Z,17.27
2019-02-24T05:47:18.951Z,17.50
2019-02-24T05:49:46.940Z,17.67
2019-02-24T05:52:14.710Z,16.10
2019-02-24T05:54:43.708Z,16.10
2019-02-24T05:57:13.291Z,17.07
2019-02-24T05:59:43.049Z,17.70
2019-02-24T06:02:10.834Z,18.37
2019-02-24T06:04:38.605Z,18.20
2019-02-24T06:07:06.550Z,17.60
2019-02-24T06:09:34.631Z,16.80
2019-02-24T06:12:02.418Z,16.67
2019-02-24T06:14:30.360Z,16.23
2019-02-24T06:16:58.135Z,15.83
2019-02-24T06:19:25.909Z,16.40
2019-02-24T06:21:53.874Z,16.97
2019-02-24T06:24:21.636Z,16.33
2019-02-24T06:26:49.434Z,17.50
2019-02-24T06:29:17.404Z,17.77
2019-02-24T06:31:45.192Z,17.53
2019-02-24T06:34:13.104Z,16.83
2019-02-24T06:36:40.900Z,17.80
2019-02-24T06:39:08.871Z,16.20
2019-02-24T06:41:36.678Z,16.40
2019-02-24T06:44:04.625Z,16.53
2019-02-24T06:46:32.483Z,17.60
2019-02-24T06:49:00.258Z,17.87
2019-02-24T06:51:28.228Z,16.20
2019-02-24T06:53:56.003Z,17.47
2019-02-24T06:56:23.766Z,18.30
2019-02-24T06:58:51.748Z,17.83
2019-02-24T07:01:19.531Z,17.27
2019-02-24T07:03:47.311Z,16.40
2019-02-24T07:06:15.249Z,15.17
2019-02-24T07:08:43.233Z,15.97
2019-02-24T07:11:11.036Z,16.97
2019-02-24T07:13:38.842Z,16.97
2019-02-24T07:16:06.739Z,16.90
2019-02-24T07:18:34.739Z,17.80
2019-02-24T07:21:02.680Z,18.50
2019-02-24T07:23:30.460Z,15.47
2019-02-24T07:25:58.427Z,17.37
2019-02-24T07:28:26.205Z,16.90
2019-02-24T07:30:53.969Z,17.60
2019-02-24T07:33:21.934Z,19.20
2019-02-24T07:35:49.738Z,16.40
2019-02-24T07:38:17.525Z,16.73
2019-02-24T07:40:45.454Z,16.60
2019-02-24T07:43:13.239Z,16.47
2019-02-24T07:45:41.013Z,17.63
2019-02-24T07:48:09.259Z,17.57
2019-02-24T07:50:37.033Z,19.10
2019-02-24T07:53:05.422Z,17.70
2019-02-24T07:55:33.191Z,17.40
2019-02-24T07:58:00.992Z,16.37
2019-02-24T08:00:32.697Z,17.63
2019-02-24T08:03:00.498Z,16.67
2019-02-24T08:05:28.321Z,18.13
2019-02-24T08:07:56.336Z,16.10
2019-02-24T08:10:24.116Z,17.70
2019-02-24T08:12:51.888Z,15.57
2019-02-24T08:15:21.817Z,16.03
2019-02-24T08:17:49.607Z,16.60
2019-02-24T08:20:17.643Z,16.87
2019-02-24T08:22:45.433Z,16.80
2019-02-24T08:25:13.579Z,15.63
2019-02-24T08:27:41.355Z,17.10
2019-02-24T08:30:10.024Z,16.77
2019-02-24T08:32:38.116Z,16.57
2019-02-24T08:35:06.453Z,16.70
2019-02-24T08:37:34.371Z,15.90
2019-02-24T08:40:02.197Z,16.90
2019-02-24T08:42:30.130Z,16.77
2019-02-24T08:44:58.115Z,16.00
2019-02-24T08:47:26.060Z,16.30
2019-02-24T08:49:55.650Z,17.53
2019-02-24T08:52:23.410Z,15.20
2019-02-24T08:54:51.257Z,16.50
2019-02-24T08:57:19.097Z,16.13
2019-02-24T08:59:47.002Z,15.60
2019-02-24T09:02:15.030Z,14.10
2019-02-24T09:04:42.825Z,15.13
2019-02-24T09:07:10.778Z,13.90
2019-02-24T09:09:38.854Z,15.07
2019-02-24T09:12:06.739Z,14.17
2019-02-24T09:14:34.690Z,15.03
2019-02-24T09:17:02.468Z,13.87
2019-02-24T09:19:30.232Z,14.27
2019-02-24T09:21:58.312Z,14.27
2019-02-24T09:24:26.179Z,13.30
2019-02-24T09:26:54.283Z,15.43
2019-02-24T09:29:22.240Z,14.63
2019-02-24T09:31:50.040Z,14.53
2019-02-24T09:34:19.303Z,15.53
2019-02-24T09:36:47.284Z,13.80
2019-02-24T09:39:15.077Z,14.03
2019-02-24T09:41:43.022Z,14.53
2019-02-24T09:44:10.828Z,13.63
2019-02-24T09:46:38.618Z,14.70
2019-02-24T09:49:06.740Z,15.30
2019-02-24T09:51:34.716Z,13.80
2019-02-24T09:54:02.498Z,13.47
2019-02-24T09:56:30.287Z,14.87
2019-02-24T09:58:58.193Z,14.50
2019-02-24T10:01:25.976Z,14.00
2019-02-24T10:03:53.960Z,14.60
2019-02-24T10:06:23.548Z,15.50
2019-02-24T10:08:52.678Z,14.13
2019-02-24T10:11:20.651Z,13.73
2019-02-24T10:13:48.463Z,14.27
2019-02-24T10:16:16.237Z,13.70
2019-02-24T10:18:46.933Z,12.73
2019-02-24T10:21:14.730Z,13.03
2019-02-24T10:23:42.668Z,12.87
2019-02-24T10:26:10.462Z,12.37
2019-02-24T10:28:38.410Z,12.27
2019-02-24T10:31:07.459Z,12.70
2019-02-24T10:33:37.075Z,11.17
2019-02-24T10:36:08.518Z,10.90
2019-02-24T10:38:36.331Z,12.20
2019-02-24T10:41:04.144Z,11.00
2019-02-24T10:43:32.084Z,11.10
2019-02-24T10:45:59.896Z,12.00
2019-02-24T10:48:27.851Z,11.37
2019-02-24T10:50:55.738Z,10.50
2019-02-24T10:53:23.499Z,10.60
2019-02-24T10:55:51.443Z,11.00
2019-02-24T10:58:21.219Z,11.93
2019-02-24T11:00:49.032Z,11.30
2019-02-24T11:03:17.007Z,11.03
2019-02-24T11:05:44.858Z,11.03
2019-02-24T11:08:12.901Z,12.10
2019-02-24T11:10:40.920Z,11.63
2019-02-24T11:13:08.700Z,13.30
2019-02-24T11:15:36.470Z,12.13
2019-02-24T11:18:04.395Z,12.73
2019-02-24T11:20:34.276Z,11.80
2019-02-24T11:23:02.091Z,11.83
2019-02-24T11:25:30.007Z,11.83
2019-02-24T11:27:57.796Z,10.90
2019-02-24T11:30:25.701Z,11.77
2019-02-24T11:32:53.608Z,11.30
2019-02-24T11:35:21.409Z,11.80
2019-02-24T11:37:49.308Z,10.80
2019-02-24T11:40:17.357Z,10.30
2019-02-24T11:42:45.343Z,11.03
2019-02-24T11:45:13.356Z,10.90
2019-02-24T11:47:41.169Z,11.43
2019-02-24T11:50:09.323Z,10.60
2019-02-24T11:52:37.301Z,11.40
2019-02-24T11:55:05.470Z,11.13
2019-02-24T11:57:33.481Z,11.30
2019-02-24T12:00:01.252Z,11.10
2019-02-24T12:02:34.452Z,11.63
2019-02-24T12:04:58.914Z,12.70
2019-02-24T12:07:26.744Z,11.73
2019-02-24T12:09:58.057Z,11.67
2019-02-24T12:12:25.932Z,11.83
2019-02-24T12:14:53.723Z,12.70
2019-02-24T12:17:21.645Z,12.53
2019-02-24T12:19:49.551Z,11.87
2019-02-24T12:22:17.344Z,11.30
2019-02-24T12:24:45.362Z,12.03
2019-02-24T12:27:13.385Z,11.77
2019-02-24T12:29:41.195Z,11.23
2019-02-24T12:32:09.184Z,11.87
2019-02-24T12:34:37.165Z,12.40
2019-02-24T12:37:05.152Z,11.60
2019-02-24T12:39:32.979Z,12.17
2019-02-24T12:42:00.844Z,12.40
2019-02-24T12:44:28.875Z,12.37
2019-02-24T12:46:56.665Z,12.40
2019-02-24T12:49:27.413Z,11.40
2019-02-24T12:51:55.628Z,11.10
2019-02-24T12:54:23.502Z,11.57
2019-02-24T12:56:51.281Z,11.90
2019-02-24T12:59:19.256Z,11.20
2019-02-24T13:01:47.032Z,11.70
2019-02-24T13:04:14.997Z,11.73
2019-02-24T13:06:42.801Z,10.40
2019-02-24T13:09:10.598Z,12.13
2019-02-24T13:11:39.637Z,11.50
2019-02-24T13:14:07.435Z,11.90
2019-02-24T13:16:35.224Z,12.10
2019-02-24T13:19:04.915Z,11.80
2019-02-24T13:21:32.808Z,10.80
2019-02-24T13:24:00.723Z,11.90
2019-02-24T13:26:28.794Z,11.60
2019-02-24T13:28:56.685Z,11.00
2019-02-24T13:31:24.442Z,11.40
2019-02-24T13:33:52.449Z,10.83
2019-02-24T13:36:20.348Z,11.30
2019-02-24T13:38:48.246Z,11.20
2019-02-24T13:41:16.048Z,11.73
2019-02-24T13:43:45.070Z,11.10
2019-02-24T13:46:12.985Z,11.17
2019-02-24T13:48:40.881Z,12.27
2019-02-24T13:51:08.657Z,11.10
2019-02-24T13:53:38.129Z,11.77
2019-02-24T13:56:06.344Z,11.40
2019-02-24T13:58:34.212Z,11.40
2019-02-24T14:01:02.020Z,12.13
2019-02-24T14:03:29.953Z,11.23
2019-02-24T14:05:59.605Z,11.47
2019-02-24T14:08:27.784Z,12.67
2019-02-24T14:10:55.797Z,12.50
2019-02-24T14:13:23.591Z,12.10
2019-02-24T14:15:51.562Z,12.40
2019-02-24T14:18:19.425Z,12.70
2019-02-24T14:20:47.713Z,11.30
2019-02-24T14:23:15.532Z,11.00
2019-02-24T14:25:43.329Z,11.20
2019-02-24T14:28:11.213Z,11.37
2019-02-24T14:30:39.037Z,11.43
2019-02-24T14:33:06.825Z,11.57
2019-02-24T14:35:34.760Z,11.00
2019-02-24T14:38:02.557Z,11.33
2019-02-24T14:40:30.346Z,11.90
2019-02-24T14:42:58.237Z,12.20
2019-02-24T14:45:25.997Z,11.70
2019-02-24T14:47:53.845Z,12.30
2019-02-24T14:50:22.055Z,11.57
2019-02-24T14:52:49.867Z,11.27
2019-02-24T14:55:18.007Z,11.90
2019-02-24T14:57:45.979Z,12.47
2019-02-24T15:00:14.449Z,12.63
2019-02-24T15:02:42.975Z,14.00
2019-02-24T15:05:11.394Z,12.90
2019-02-24T15:07:39.418Z,13.03
2019-02-24T15:10:09.715Z,30.53
2019-02-24T15:12:37.499Z,14.10
2019-02-24T15:15:06.911Z,13.30
2019-02-24T15:17:34.792Z,14.00
2019-02-24T15:20:02.753Z,13.40
2019-02-24T15:22:30.654Z,13.07
2019-02-24T15:24:58.449Z,13.30
2019-02-24T15:27:26.227Z,13.80
2019-02-24T15:29:54.205Z,14.20
2019-02-24T15:32:21.980Z,13.60
2019-02-24T15:34:50.702Z,15.30
2019-02-24T15:37:18.626Z,14.37
2019-02-24T15:39:46.386Z,14.77
2019-02-24T15:42:14.185Z,13.80
2019-02-24T15:44:42.051Z,14.23
2019-02-24T15:47:10.173Z,13.50
2019-02-24T15:49:40.253Z,14.80
2019-02-24T15:52:10.144Z,14.40
2019-02-24T15:54:44.513Z,13.93
2019-02-24T15:57:12.717Z,14.60
2019-02-24T15:59:40.706Z,14.53
2019-02-24T16:02:12.321Z,14.57
2019-02-24T16:04:43.470Z,13.70
2019-02-24T16:07:14.259Z,13.60
2019-02-24T16:09:46.609Z,14.57
2019-02-24T16:12:14.686Z,13.20
2019-02-24T16:14:44.431Z,12.60
2019-02-24T16:17:15.256Z,13.30
2019-02-24T16:19:43.107Z,14.90
2019-02-24T16:22:13.746Z,14.33
2019-02-24T16:24:46.675Z,15.17
2019-02-24T16:27:17.786Z,14.77
2019-02-24T16:29:50.490Z,14.03
2019-02-24T16:32:18.301Z,14.97
2019-02-24T16:34:52.358Z,15.33
2019-02-24T16:37:21.821Z,14.73
2019-02-24T16:39:54.058Z,15.30
2019-02-24T16:42:25.386Z,15.70
2019-02-24T16:44:54.904Z,14.43
2019-02-24T16:47:22.813Z,16.10
2019-02-24T16:49:50.766Z,16.90
2019-02-24T16:52:26.813Z,15.50
2019-02-24T16:54:55.464Z,16.33
2019-02-24T16:57:25.290Z,15.97
2019-02-24T16:59:53.524Z,15.20
2019-02-24T17:02:23.860Z,15.43
2019-02-24T17:04:53.486Z,15.10
2019-02-24T17:07:21.698Z,13.70
2019-02-24T17:09:54.715Z,15.63
2019-02-24T17:12:24.518Z,15.40
2019-02-24T17:14:52.487Z,15.10
2019-02-24T17:17:20.647Z,15.47
2019-02-24T17:19:48.760Z,15.00
2019-02-24T17:22:18.764Z,15.93
2019-02-24T17:24:47.058Z,13.73
2019-02-24T17:27:15.761Z,16.63
2019-02-24T17:29:45.442Z,14.63
2019-02-24T17:32:19.805Z,15.30
2019-02-24T17:34:49.389Z,15.37
2019-02-24T17:37:19.950Z,15.27
2019-02-24T17:39:47.037Z,15.57
2019-02-24T17:42:14.849Z,14.50
2019-02-24T17:44:42.960Z,15.40
2019-02-24T17:47:10.747Z,15.53
2019-02-24T17:49:39.095Z,14.87
2019-02-24T17:52:07.079Z,16.37
2019-02-24T17:54:35.167Z,16.30
2019-02-24T17:57:07.361Z,14.37
2019-02-24T17:59:40.369Z,15.27
2019-02-24T18:02:05.130Z,16.90
2019-02-24T18:04:32.928Z,16.20
2019-02-24T18:07:01.052Z,14.67
2019-02-24T18:09:28.865Z,17.20
2019-02-24T18:11:57.895Z,15.20
2019-02-24T18:14:25.680Z,16.60
2019-02-24T18:16:53.442Z,16.03
2019-02-24T18:19:21.320Z,17.10
2019-02-24T18:21:50.243Z,16.83
2019-02-24T18:24:18.053Z,17.33
2019-02-24T18:26:45.983Z,17.60
2019-02-24T18:29:13.777Z,26.60
2019-02-24T18:31:41.566Z,22.53
2019-02-24T18:34:09.533Z,26.70
2019-02-24T18:36:37.563Z,20.00
2019-02-24T18:39:05.883Z,19.47
2019-02-24T18:41:33.691Z,17.20
2019-02-24T18:44:01.691Z,17.83
2019-02-24T18:46:29.635Z,16.80
2019-02-24T18:48:57.681Z,16.60
2019-02-24T18:51:25.511Z,16.33
2019-02-24T18:53:53.475Z,17.87
2019-02-24T18:56:23.844Z,19.03
2019-02-24T18:58:51.732Z,17.60
2019-02-24T19:01:19.691Z,17.57
2019-02-24T19:03:47.496Z,18.80
2019-02-24T19:06:15.331Z,17.67
2019-02-24T19:08:43.216Z,17.60
2019-02-24T19:11:10.992Z,17.60
2019-02-24T19:13:39.138Z,17.40
2019-02-24T19:16:08.057Z,18.73
2019-02-24T19:18:36.111Z,18.90
2019-02-24T19:21:03.931Z,20.10
2019-02-24T19:23:31.713Z,19.27
2019-02-24T19:26:00.419Z,18.50
2019-02-24T19:28:28.421Z,17.50
2019-02-24T19:30:56.226Z,18.63
2019-02-24T19:33:24.013Z,18.83
2019-02-24T19:35:52.044Z,19.50
2019-02-24T19:38:19.835Z,19.73
2019-02-24T19:40:48.382Z,18.97
2019-02-24T19:43:16.474Z,18.60
2019-02-24T19:45:44.269Z,20.00
2019-02-24T19:48:12.216Z,19.27
2019-02-24T19:50:40.010Z,18.70
2019-02-24T19:53:07.953Z,18.30
2019-02-24T19:55:35.739Z,19.93
2019-02-24T19:58:03.878Z,19.50
2019-02-24T20:00:31.982Z,20.63
2019-02-24T20:03:01.569Z,18.30
2019-02-24T20:05:29.345Z,18.90
2019-02-24T20:07:58.560Z,19.30
2019-02-24T20:10:26.469Z,19.10
2019-02-24T20:12:54.240Z,22.00
2019-02-24T20:15:22.177Z,19.83
2019-02-24T20:17:52.123Z,21.23
2019-02-24T20:20:20.063Z,20.60
2019-02-24T20:22:47.839Z,21.20
2019-02-24T20:25:15.858Z,19.87
2019-02-24T20:27:43.799Z,22.10
2019-02-24T20:30:18.981Z,21.40
2019-02-24T20:32:48.101Z,20.33
2019-02-24T20:35:15.891Z,21.40
2019-02-24T20:37:43.867Z,21.23
2019-02-24T20:40:12.067Z,21.33
2019-02-24T20:42:39.871Z,21.87
2019-02-24T20:45:09.586Z,20.60
2019-02-24T20:47:37.369Z,19.67
2019-02-24T20:50:07.211Z,21.63
2019-02-24T20:52:34.979Z,20.10
2019-02-24T20:55:02.917Z,20.20
2019-02-24T20:57:30.810Z,22.00
2019-02-24T20:59:58.797Z,22.70
2019-02-24T21:02:26.726Z,21.60
2019-02-24T21:04:55.737Z,22.77
2019-02-24T21:07:23.649Z,22.17
2019-02-24T21:09:53.232Z,25.30
2019-02-24T21:12:21.117Z,25.33
2019-02-24T21:14:48.911Z,25.70
2019-02-24T21:17:16.689Z,27.33
2019-02-24T21:19:44.650Z,26.30
2019-02-24T21:22:12.530Z,25.70
2019-02-24T21:24:40.304Z,25.90
2019-02-24T21:27:08.083Z,25.43
2019-02-24T21:29:36.021Z,25.70
2019-02-24T21:32:03.840Z,25.00
2019-02-24T21:34:31.773Z,26.03
2019-02-24T21:36:59.661Z,25.27
2019-02-24T21:39:27.444Z,24.17
2019-02-24T21:41:55.375Z,24.50
2019-02-24T21:44:23.159Z,23.03
2019-02-24T21:46:50.951Z,24.10
2019-02-24T21:49:18.893Z,21.63
2019-02-24T21:51:46.678Z,22.50
2019-02-24T21:54:14.579Z,23.50
2019-02-24T21:56:42.672Z,23.10
2019-02-24T21:59:10.482Z,21.57
2019-02-24T22:01:38.291Z,23.93
2019-02-24T22:04:06.302Z,23.27
2019-02-24T22:06:34.339Z,23.23
2019-02-24T22:09:02.480Z,23.37
2019-02-24T22:11:30.392Z,23.03
2019-02-24T22:13:58.326Z,23.13
2019-02-24T22:16:26.124Z,22.73
2019-02-24T22:18:53.938Z,22.90
2019-02-24T22:21:21.834Z,23.10
2019-02-24T22:23:49.592Z,24.13
2019-02-24T22:26:17.557Z,23.60
2019-02-24T22:28:45.325Z,23.33
2019-02-24T22:31:14.035Z,23.37
2019-02-24T22:33:42.106Z,23.70
2019-02-24T22:36:09.893Z,22.67
2019-02-24T22:38:41.301Z,24.20
2019-02-24T22:41:09.204Z,24.97
2019-02-24T22:43:37.002Z,24.10
2019-02-24T22:46:04.776Z,22.67
2019-02-24T22:48:32.723Z,24.97
2019-02-24T22:51:00.523Z,23.33
2019-02-24T22:53:28.290Z,24.37
2019-02-24T22:55:56.234Z,24.00
2019-02-24T22:58:24.152Z,23.97
2019-02-24T23:01:20.318Z,23.60
2019-02-24T23:03:48.720Z,23.87
2019-02-24T23:06:16.521Z,23.30
2019-02-24T23:08:44.653Z,23.57
2019-02-24T23:11:12.591Z,22.03
2019-02-24T23:13:40.363Z,23.30
2019-02-24T23:16:08.112Z,23.60
2019-02-24T23:18:36.646Z,24.37
2019-02-24T23:21:04.746Z,24.20
2019-02-24T23:23:32.696Z,23.63
2019-02-24T23:26:00.672Z,24.90
2019-02-24T23:28:28.438Z,23.27
2019-02-24T23:30:56.371Z,21.90
2019-02-24T23:33:25.513Z,22.23
2019-02-24T23:35:53.418Z,22.67
2019-02-24T23:38:21.210Z,23.17
2019-02-24T23:40:49.130Z,21.07
2019-02-24T23:43:16.923Z,22.80
2019-02-24T23:45:44.858Z,22.90
2019-02-24T23:48:12.651Z,22.13
2019-02-24T23:50:40.441Z,21.80
2019-02-24T23:53:08.382Z,22.53
2019-02-24T23:55:36.271Z,21.17
2019-02-24T23:58:04.270Z,20.73
